Time;durP1;ratioP1;P1;durP2;ratioP2;P2;SDS_P1;SDS_P2;PMS_P1;PMS_P2;Temp;Humidity;BMP_temperature;BMP_pressure;BME280_temperature;BME280_humidity;BME280_pressure;Samples;Min_cycle;Max_cycle;Signal;HPM_P1;HPM_P2
2023/03/02 00:00:37;;;;;;;2.30;1.50;;;4.40;99.90;;;;;;4932012;29;20138;-59
2023/03/02 00:03:04;;;;;;;2.60;1.77;;;4.50;99.90;;;;;;4916637;29;20043;-58
2023/03/02 00:05:31;;;;;;;5.13;2.67;;;4.40;99.90;;;;;;4948947;29;20054;-59
2023/03/02 00:07:58;;;;;;;6.53;2.05;;;4.40;99.90;;;;;;4932242;29;20106;-58
2023/03/02 00:10:25;;;;;;;9.40;2.08;;;4.40;99.90;;;;;;4949396;29;20059;-58
2023/03/02 00:12:52;;;;;;;3.85;2.05;;;4.40;99.90;;;;;;4949160;29;20051;-59
2023/03/02 00:15:18;;;;;;;6.25;2.20;;;4.30;99.90;;;;;;4948696;29;20053;-58
2023/03/02 00:17:45;;;;;;;6.93;2.35;;;4.30;99.90;;;;;;4950187;29;20055;-58
2023/03/02 00:20:12;;;;;;;7.15;2.33;;;4.20;99.90;;;;;;4952052;29;20043;-58
2023/03/02 00:22:40;;;;;;;6.97;2.45;;;4.20;99.90;;;;;;4951691;28;20053;-57
2023/03/02 00:25:08;;;;;;;6.25;2.35;;;4.10;99.90;;;;;;4934242;29;20051;-55
2023/03/02 00:27:34;;;;;;;4.70;2.53;;;4.10;99.90;;;;;;4952094;29;20059;-58
2023/03/02 00:30:01;;;;;;;10.35;3.33;;;4.10;99.90;;;;;;4951563;29;20066;-57
2023/03/02 00:32:28;;;;;;;9.65;2.97;;;4.00;99.90;;;;;;4948409;29;20130;-57
2023/03/02 00:34:55;;;;;;;4.75;2.85;;;4.00;99.90;;;;;;4943035;29;20163;-58
2023/03/02 00:37:21;;;;;;;4.75;2.70;;;4.00;99.90;;;;;;4950058;29;20087;-58
2023/03/02 00:39:50;;;;;;;5.57;3.05;;;4.00;99.90;;;;;;4954026;28;20047;-57
2023/03/02 00:42:17;;;;;;;7.50;2.65;;;3.90;99.90;;;;;;4949659;29;20134;-58
2023/03/02 00:44:44;;;;;;;9.85;3.22;;;3.90;99.90;;;;;;4948187;29;20053;-58
2023/03/02 00:47:10;;;;;;;4.25;3.00;;;3.80;99.90;;;;;;4948024;29;20055;-55
2023/03/02 00:49:37;;;;;;;5.72;3.33;;;3.80;99.90;;;;;;4949132;29;20039;-56
2023/03/02 00:52:04;;;;;;;5.55;3.33;;;3.80;99.90;;;;;;4948795;29;20057;-56
2023/03/02 00:54:31;;;;;;;5.07;3.20;;;3.90;99.90;;;;;;4952149;28;20134;-55
2023/03/02 00:56:58;;;;;;;5.68;3.22;;;4.00;99.90;;;;;;4955548;28;20554;-58
2023/03/02 00:59:27;;;;;;;7.43;4.13;;;4.00;99.90;;;;;;4951577;29;20909;-58
2023/03/02 01:01:58;;;;;;;9.82;3.90;;;3.90;99.90;;;;;;4951009;29;20135;-58
2023/03/02 01:04:28;;;;;;;9.00;4.43;;;3.90;99.90;;;;;;4950877;29;20525;-58
2023/03/02 01:06:56;;;;;;;5.93;3.50;;;3.90;99.90;;;;;;4951206;29;20055;-58
2023/03/02 01:09:23;;;;;;;8.48;3.83;;;3.90;99.90;;;;;;4951462;29;20051;-59
2023/03/02 01:11:50;;;;;;;6.35;4.03;;;3.90;99.90;;;;;;4950986;29;20055;-58
2023/03/02 01:14:17;;;;;;;7.78;4.15;;;4.00;99.90;;;;;;4951417;29;20077;-53
2023/03/02 01:16:44;;;;;;;8.60;4.35;;;3.90;99.90;;;;;;4950912;29;20502;-57
2023/03/02 01:19:10;;;;;;;8.15;3.80;;;4.10;99.90;;;;;;4934152;29;20055;-61
2023/03/02 01:21:37;;;;;;;9.15;4.78;;;4.00;99.90;;;;;;4951029;29;20049;-56
2023/03/02 01:24:04;;;;;;;11.02;4.97;;;4.00;99.90;;;;;;4950880;29;20055;-57
2023/03/02 01:26:31;;;;;;;6.82;4.50;;;4.00;99.90;;;;;;4950693;29;20070;-57
2023/03/02 01:28:58;;;;;;;12.70;5.18;;;4.30;99.90;;;;;;4951201;29;20051;-54
2023/03/02 01:31:26;;;;;;;7.93;4.05;;;4.00;99.90;;;;;;4950575;29;20059;-57
2023/03/02 01:33:53;;;;;;;7.35;4.70;;;4.10;99.90;;;;;;4949055;28;20043;-60
2023/03/02 01:36:20;;;;;;;8.50;5.05;;;4.10;99.90;;;;;;4934095;29;20055;-57
2023/03/02 01:38:47;;;;;;;10.23;5.25;;;4.10;99.90;;;;;;4950526;29;20059;-54
2023/03/02 01:41:14;;;;;;;11.75;5.03;;;4.10;99.90;;;;;;4950639;29;20051;-55
2023/03/02 01:43:40;;;;;;;8.80;5.20;;;4.10;99.90;;;;;;4950109;29;20048;-57
2023/03/02 01:46:14;;;;;;;12.45;5.50;;;4.10;99.90;;;;;;4951001;29;20074;-56
2023/03/02 01:48:49;;;;;;;10.98;5.50;;;4.10;99.90;;;;;;4950571;29;20051;-57
2023/03/02 01:51:20;;;;;;;11.55;6.25;;;4.10;99.90;;;;;;4933842;29;20138;-58
2023/03/02 01:53:48;;;;;;;13.02;5.40;;;4.10;99.90;;;;;;4950146;29;20050;-57
2023/03/02 01:56:17;;;;;;;10.50;6.97;;;4.10;99.90;;;;;;4918229;29;20074;-58
2023/03/02 01:58:43;;;;;;;14.07;6.22;;;4.10;99.90;;;;;;4933538;29;20126;-59
2023/03/02 02:01:14;;;;;;;12.32;7.05;;;4.10;99.90;;;;;;4933039;29;20466;-58
2023/03/02 02:03:46;;;;;;;9.90;6.00;;;4.10;99.90;;;;;;4933373;29;20506;-58
2023/03/02 02:06:25;;;;;;;19.58;6.53;;;4.10;99.90;;;;;;4933863;29;20070;-57
2023/03/02 02:08:52;;;;;;;14.40;6.28;;;4.10;99.90;;;;;;4933440;29;20058;-55
2023/03/02 02:11:19;;;;;;;12.25;6.18;;;4.10;99.90;;;;;;4931656;29;20055;-56
2023/03/02 02:13:46;;;;;;;10.02;6.20;;;4.00;99.90;;;;;;4939584;29;20131;-57
2023/03/02 02:16:13;;;;;;;10.73;6.60;;;4.00;99.90;;;;;;4948799;29;20058;-58
2023/03/02 02:18:40;;;;;;;10.82;6.85;;;4.00;99.90;;;;;;4590288;28;10001008;-57
2023/03/02 02:21:07;;;;;;;11.25;5.90;;;4.00;99.90;;;;;;4933077;29;20055;-57
2023/03/02 02:23:37;;;;;;;10.48;5.68;;;3.90;99.90;;;;;;4932797;29;20130;-57
2023/03/02 02:26:17;;;;;;;10.50;5.80;;;3.90;99.90;;;;;;4933192;29;20056;-56
2023/03/02 02:28:49;;;;;;;15.73;6.75;;;4.00;99.90;;;;;;4951716;29;20097;-57
2023/03/02 02:31:21;;;;;;;14.48;6.07;;;4.00;99.90;;;;;;4952842;29;20423;-58
2023/03/02 02:33:50;;;;;;;10.85;6.13;;;3.90;99.90;;;;;;4935405;29;20051;-55
2023/03/02 02:36:24;;;;;;;9.32;5.88;;;3.90;99.90;;;;;;4934043;29;20167;-58
2023/03/02 02:38:53;;;;;;;10.80;5.55;;;3.80;99.90;;;;;;4935587;29;20743;-57
2023/03/02 02:41:21;;;;;;;10.38;5.32;;;3.70;99.90;;;;;;4917589;29;20058;-57
2023/03/02 02:43:48;;;;;;;10.05;4.63;;;3.70;99.90;;;;;;4917478;29;20050;-57
2023/03/02 02:46:15;;;;;;;10.27;5.68;;;3.60;99.90;;;;;;4900737;29;20508;-58
2023/03/02 02:48:42;;;;;;;10.40;5.88;;;3.50;99.90;;;;;;4933280;29;20082;-57
2023/03/02 02:51:09;;;;;;;10.70;5.25;;;3.50;99.90;;;;;;4949582;29;20050;-57
2023/03/02 02:53:39;;;;;;;12.20;6.82;;;3.50;99.90;;;;;;4916838;29;20098;-55
2023/03/02 02:56:06;;;;;;;10.05;6.00;;;3.40;99.90;;;;;;4949431;29;20047;-57
2023/03/02 02:58:44;;;;;;;12.35;6.07;;;3.40;99.90;;;;;;4932820;29;20047;-56
2023/03/02 03:01:13;;;;;;;8.50;6.07;;;3.40;99.90;;;;;;4933645;29;20059;-57
2023/03/02 03:03:39;;;;;;;19.45;7.70;;;3.30;99.90;;;;;;4932166;29;20053;-57
2023/03/02 03:06:11;;;;;;;12.90;6.82;;;3.30;99.90;;;;;;4916034;29;20055;-57
2023/03/02 03:08:44;;;;;;;15.75;7.30;;;3.20;99.90;;;;;;4931895;29;20738;-58
2023/03/02 03:11:13;;;;;;;11.02;6.05;;;3.20;99.90;;;;;;4949353;29;20121;-56
2023/03/02 03:13:42;;;;;;;12.25;5.63;;;3.20;99.90;;;;;;4948396;29;20417;-57
2023/03/02 03:16:11;;;;;;;13.32;7.35;;;3.20;99.90;;;;;;4931467;29;20061;-56
2023/03/02 03:18:37;;;;;;;15.60;6.80;;;3.10;99.90;;;;;;4932157;29;20487;-58
2023/03/02 03:21:04;;;;;;;10.77;6.88;;;3.10;99.90;;;;;;4931789;29;20227;-58
2023/03/02 03:23:31;;;;;;;14.15;6.88;;;3.10;99.90;;;;;;4948434;29;20047;-58
2023/03/02 03:25:58;;;;;;;11.27;7.32;;;3.00;99.90;;;;;;4948939;29;20061;-58
2023/03/02 03:28:24;;;;;;;13.45;7.13;;;3.00;99.90;;;;;;4931809;29;20059;-58
2023/03/02 03:30:51;;;;;;;11.55;6.70;;;2.90;99.90;;;;;;4948457;29;20047;-59
2023/03/02 03:33:18;;;;;;;14.15;7.10;;;2.90;99.90;;;;;;4948028;29;20098;-59
2023/03/02 03:35:44;;;;;;;9.85;6.72;;;2.90;99.90;;;;;;4948506;29;20130;-59
2023/03/02 03:38:11;;;;;;;13.95;7.20;;;2.90;99.90;;;;;;4948910;29;20130;-57
2023/03/02 03:40:38;;;;;;;10.25;6.18;;;2.80;99.90;;;;;;4949509;29;20051;-58
2023/03/02 03:43:05;;;;;;;11.07;6.90;;;2.80;99.90;;;;;;4947722;29;20077;-58
2023/03/02 03:45:31;;;;;;;12.25;7.28;;;2.80;99.90;;;;;;4948918;29;20051;-57
2023/03/02 03:47:58;;;;;;;16.35;7.72;;;2.80;99.90;;;;;;4947807;29;20051;-60
2023/03/02 03:50:25;;;;;;;11.85;7.45;;;2.80;99.90;;;;;;4948782;29;20051;-61
2023/03/02 03:52:51;;;;;;;13.70;7.47;;;2.70;99.90;;;;;;4948510;29;20786;-58
2023/03/02 03:55:18;;;;;;;16.80;7.43;;;2.70;99.90;;;;;;4948682;29;20048;-58
2023/03/02 03:57:45;;;;;;;10.95;7.40;;;2.70;99.90;;;;;;4917336;29;20130;-58
2023/03/02 04:00:21;;;;;;;12.20;7.00;;;2.70;99.90;;;;;;4951840;29;20050;-58
2023/03/02 04:02:49;;;;;;;9.35;6.40;;;2.60;99.90;;;;;;4933364;29;20055;-59
2023/03/02 04:05:16;;;;;;;12.65;7.30;;;2.60;99.90;;;;;;4951280;29;20082;-58
2023/03/02 04:07:43;;;;;;;12.02;6.63;;;2.60;99.90;;;;;;4951231;29;20066;-58
2023/03/02 04:10:11;;;;;;;16.23;7.53;;;2.60;99.90;;;;;;4952008;29;20047;-58
2023/03/02 04:12:38;;;;;;;14.07;6.90;;;2.50;99.90;;;;;;4951565;29;20808;-58
2023/03/02 04:15:07;;;;;;;12.32;6.95;;;2.50;99.90;;;;;;4951350;29;20131;-58
2023/03/02 04:17:33;;;;;;;11.85;7.60;;;2.40;99.90;;;;;;4951500;29;20631;-56
2023/03/02 04:20:00;;;;;;;14.02;8.05;;;2.40;99.90;;;;;;4935048;29;20043;-57
2023/03/02 04:22:27;;;;;;;14.88;7.65;;;2.40;99.90;;;;;;4951597;29;20101;-58
2023/03/02 04:24:53;;;;;;;17.75;8.43;;;2.40;99.90;;;;;;4951051;29;20212;-56
2023/03/02 04:27:20;;;;;;;12.63;7.72;;;2.40;99.90;;;;;;4951630;29;20047;-58
2023/03/02 04:29:47;;;;;;;19.02;7.80;;;2.40;99.90;;;;;;4951493;29;20047;-55
2023/03/02 04:32:14;;;;;;;16.67;8.43;;;2.30;99.90;;;;;;4936658;28;20502;-59
2023/03/02 04:34:41;;;;;;;15.60;8.55;;;2.30;99.90;;;;;;4952020;28;20047;-58
2023/03/02 04:37:07;;;;;;;14.32;8.82;;;2.30;99.90;;;;;;4951559;29;20051;-58
2023/03/02 04:39:34;;;;;;;14.43;8.75;;;2.30;99.90;;;;;;4951132;29;20051;-59
2023/03/02 04:42:01;;;;;;;16.10;8.98;;;2.30;99.90;;;;;;4951639;29;20134;-58
2023/03/02 04:44:27;;;;;;;13.93;8.68;;;2.30;99.90;;;;;;4950323;29;20062;-59
2023/03/02 04:46:54;;;;;;;14.20;8.57;;;2.30;99.90;;;;;;4951276;29;20522;-59
2023/03/02 04:49:21;;;;;;;14.38;8.35;;;2.30;99.90;;;;;;4950986;29;20117;-61
2023/03/02 04:51:48;;;;;;;15.40;8.20;;;2.30;99.90;;;;;;4951328;29;20517;-57
2023/03/02 04:54:25;;;;;;;17.42;10.40;;;2.30;99.90;;;;;;4950812;29;20055;-58
2023/03/02 04:56:52;;;;;;;18.80;10.35;;;2.20;99.90;;;;;;4951147;29;20059;-57
2023/03/02 04:59:24;;;;;;;18.60;9.40;;;2.20;99.90;;;;;;4950910;29;20122;-58
2023/03/02 05:01:56;;;;;;;15.32;9.20;;;2.10;99.90;;;;;;4951142;29;20110;-58
2023/03/02 05:04:23;;;;;;;19.58;10.02;;;2.00;99.90;;;;;;4952692;28;20586;-58
2023/03/02 05:06:50;;;;;;;15.88;8.80;;;2.00;99.90;;;;;;4950981;29;20110;-59
2023/03/02 05:09:17;;;;;;;14.80;8.82;;;2.00;99.90;;;;;;4950301;28;20054;-59
2023/03/02 05:11:44;;;;;;;13.80;8.52;;;1.90;99.90;;;;;;4950619;29;20047;-58
2023/03/02 05:14:11;;;;;;;14.27;8.70;;;1.90;99.90;;;;;;4933312;29;20308;-58
2023/03/02 05:16:38;;;;;;;16.38;8.98;;;2.00;99.90;;;;;;4947393;29;20051;-55
2023/03/02 05:19:07;;;;;;;16.55;8.63;;;1.90;99.90;;;;;;4951626;28;20058;-58
2023/03/02 05:21:34;;;;;;;15.52;8.40;;;1.90;99.90;;;;;;4950337;29;20054;-58
2023/03/02 05:24:02;;;;;;;16.02;9.20;;;1.90;99.90;;;;;;4950144;29;20414;-57
2023/03/02 05:26:28;;;;;;;16.98;9.55;;;1.90;99.90;;;;;;4950910;29;20043;-58
2023/03/02 05:28:55;;;;;;;16.40;9.30;;;1.90;99.90;;;;;;4933710;29;20075;-60
2023/03/02 05:31:34;;;;;;;16.05;9.80;;;1.80;99.90;;;;;;4949900;29;20051;-56
2023/03/02 05:34:02;;;;;;;14.50;8.55;;;1.80;99.90;;;;;;4930934;29;20081;-55
2023/03/02 05:36:29;;;;;;;14.63;8.63;;;1.80;99.90;;;;;;4946745;29;20235;-57
2023/03/02 05:38:56;;;;;;;25.08;9.77;;;1.80;99.90;;;;;;4950491;29;20051;-57
2023/03/02 05:41:23;;;;;;;15.32;8.80;;;1.70;99.90;;;;;;4949788;29;20174;-59
2023/03/02 05:43:49;;;;;;;14.32;8.88;;;1.70;99.90;;;;;;4950087;29;20058;-58
2023/03/02 05:46:16;;;;;;;18.50;10.48;;;1.70;99.90;;;;;;4949805;29;20509;-57
2023/03/02 05:48:45;;;;;;;18.63;9.80;;;1.60;99.90;;;;;;4950302;29;20055;-57
2023/03/02 05:51:12;;;;;;;26.77;9.60;;;1.60;99.90;;;;;;4949650;29;20439;-57
2023/03/02 05:53:38;;;;;;;18.55;9.05;;;1.60;99.90;;;;;;4949920;29;20481;-57
2023/03/02 05:56:06;;;;;;;18.85;8.77;;;1.60;99.90;;;;;;4949342;29;20573;-58
2023/03/02 05:58:32;;;;;;;19.15;9.68;;;1.60;99.90;;;;;;4950151;29;20138;-58
2023/03/02 06:00:59;;;;;;;21.58;10.30;;;1.60;99.90;;;;;;4949515;29;20054;-58
2023/03/02 06:03:26;;;;;;;20.17;8.90;;;1.50;99.90;;;;;;4932803;29;20081;-58
2023/03/02 06:05:53;;;;;;;17.92;8.93;;;1.50;99.90;;;;;;4949491;29;20101;-57
2023/03/02 06:08:20;;;;;;;17.63;9.88;;;1.40;99.90;;;;;;4950114;29;20058;-57
2023/03/02 06:10:49;;;;;;;22.67;9.48;;;1.40;99.90;;;;;;4950162;29;20051;-58
2023/03/02 06:13:16;;;;;;;23.80;9.38;;;1.40;99.90;;;;;;4948822;29;20153;-58
2023/03/02 06:15:43;;;;;;;22.85;10.35;;;1.40;99.90;;;;;;4931905;29;20166;-59
2023/03/02 06:18:11;;;;;;;26.23;10.00;;;1.40;99.90;;;;;;4949104;29;20089;-58
2023/03/02 06:20:39;;;;;;;18.92;10.32;;;1.40;99.90;;;;;;4953426;28;20055;-59
2023/03/02 06:23:05;;;;;;;21.73;12.63;;;1.30;99.90;;;;;;4951681;28;20086;-59
2023/03/02 06:25:34;;;;;;;19.05;10.85;;;1.30;99.90;;;;;;4949439;29;20053;-57
2023/03/02 06:28:01;;;;;;;18.95;11.55;;;1.30;99.90;;;;;;4949447;29;20163;-58
2023/03/02 06:30:28;;;;;;;24.23;10.55;;;1.30;99.90;;;;;;4949038;29;20051;-57
2023/03/02 06:32:55;;;;;;;23.95;11.40;;;1.30;99.90;;;;;;4949153;29;20053;-56
2023/03/02 06:35:22;;;;;;;20.95;10.93;;;1.30;99.90;;;;;;4948696;29;20082;-59
2023/03/02 06:37:49;;;;;;;18.45;9.95;;;1.40;99.90;;;;;;4949347;29;20047;-58
2023/03/02 06:40:16;;;;;;;18.95;11.15;;;1.40;99.90;;;;;;4949534;29;20059;-54
2023/03/02 06:42:43;;;;;;;21.58;10.30;;;1.40;99.90;;;;;;4948799;29;20057;-56
2023/03/02 06:45:10;;;;;;;23.90;13.32;;;1.50;99.90;;;;;;4948739;29;20051;-57
2023/03/02 06:47:37;;;;;;;22.60;11.23;;;1.50;99.90;;;;;;4949480;29;20797;-55
2023/03/02 06:50:04;;;;;;;22.13;13.07;;;1.50;99.90;;;;;;4949308;29;20126;-58
2023/03/02 06:52:31;;;;;;;27.13;13.32;;;1.50;99.90;;;;;;4948811;29;20043;-57
2023/03/02 06:54:58;;;;;;;21.42;11.48;;;1.50;99.90;;;;;;4949539;29;20078;-57
2023/03/02 06:57:32;;;;;;;30.90;14.63;;;1.50;99.90;;;;;;4950311;29;20071;-58
2023/03/02 07:00:16;;;;;;;25.83;11.80;;;1.50;99.90;;;;;;4950904;29;20094;-58
2023/03/02 07:02:43;;;;;;;28.20;12.02;;;1.50;99.90;;;;;;4950419;29;20138;-55
2023/03/02 07:05:10;;;;;;;25.33;11.40;;;1.50;99.90;;;;;;4950439;29;20044;-58
2023/03/02 07:07:37;;;;;;;19.40;11.68;;;1.50;99.90;;;;;;4958201;28;20510;-59
2023/03/02 07:10:05;;;;;;;20.80;11.50;;;1.50;99.90;;;;;;4948697;29;20048;-54
2023/03/02 07:12:32;;;;;;;27.05;15.38;;;1.60;99.90;;;;;;4932217;29;20094;-55
2023/03/02 07:14:59;;;;;;;20.73;12.80;;;1.60;99.90;;;;;;4948877;29;20051;-58
2023/03/02 07:17:25;;;;;;;24.52;13.18;;;1.60;99.90;;;;;;4949115;29;20129;-56
2023/03/02 07:19:52;;;;;;;23.20;12.52;;;1.60;99.90;;;;;;4949347;29;20509;-57
2023/03/02 07:22:19;;;;;;;24.05;12.98;;;1.70;99.90;;;;;;4949643;29;20166;-57
2023/03/02 07:24:46;;;;;;;30.10;15.27;;;1.70;99.90;;;;;;4948695;29;20053;-56
2023/03/02 07:27:12;;;;;;;29.52;14.68;;;1.80;99.90;;;;;;4949064;29;20055;-56
2023/03/02 07:29:39;;;;;;;27.63;13.88;;;1.80;99.90;;;;;;4949039;29;20130;-57
2023/03/02 07:32:06;;;;;;;26.88;13.55;;;1.80;99.90;;;;;;4949710;28;20540;-56
2023/03/02 07:34:33;;;;;;;27.08;14.85;;;1.90;99.90;;;;;;4951394;29;20459;-56
2023/03/02 07:37:02;;;;;;;29.45;15.05;;;1.90;99.90;;;;;;4943974;29;20138;-58
2023/03/02 07:39:32;;;;;;;26.90;14.95;;;1.90;99.90;;;;;;4929094;29;20051;-59
2023/03/02 07:42:03;;;;;;;30.90;15.27;;;2.00;99.90;;;;;;4931283;29;20200;-59
2023/03/02 07:44:30;;;;;;;30.52;16.80;;;2.20;99.90;;;;;;4952073;29;20054;-55
2023/03/02 07:46:57;;;;;;;28.23;15.30;;;2.20;99.90;;;;;;4951672;29;20127;-55
2023/03/02 07:49:24;;;;;;;24.48;14.48;;;2.30;99.90;;;;;;4952259;29;20055;-58
2023/03/02 07:51:50;;;;;;;27.15;14.30;;;2.30;99.90;;;;;;4952501;29;20039;-57
2023/03/02 07:54:17;;;;;;;31.52;15.88;;;2.40;99.90;;;;;;4945553;29;20055;-58
2023/03/02 07:56:44;;;;;;;25.45;14.80;;;2.40;99.90;;;;;;4951179;29;20043;-56
2023/03/02 07:59:11;;;;;;;28.88;16.52;;;2.50;99.90;;;;;;4952071;29;20126;-57
2023/03/02 08:01:39;;;;;;;24.67;15.45;;;2.60;99.90;;;;;;4932414;29;20090;-58
2023/03/02 08:04:05;;;;;;;28.88;16.17;;;2.60;99.90;;;;;;4951698;29;20491;-57
2023/03/02 08:06:32;;;;;;;26.90;15.00;;;2.70;99.90;;;;;;4950145;29;20061;-56
2023/03/02 08:09:01;;;;;;;28.40;16.75;;;2.80;99.90;;;;;;4950143;29;20634;-57
2023/03/02 08:11:28;;;;;;;29.48;15.50;;;2.90;99.90;;;;;;4950000;29;20145;-56
2023/03/02 08:13:57;;;;;;;28.23;16.85;;;2.90;99.90;;;;;;4949572;29;20051;-58
2023/03/02 08:16:25;;;;;;;25.40;15.00;;;3.00;99.90;;;;;;4604892;28;10000172;-58
2023/03/02 08:18:52;;;;;;;28.15;15.40;;;3.10;99.90;;;;;;4946704;29;20055;-58
2023/03/02 08:21:20;;;;;;;32.67;16.98;;;3.10;99.90;;;;;;4947537;29;20054;-58
2023/03/02 08:23:47;;;;;;;33.08;16.55;;;3.20;99.90;;;;;;4948558;29;20051;-56
2023/03/02 08:26:17;;;;;;;26.90;15.27;;;3.30;99.90;;;;;;4948329;29;20083;-58
2023/03/02 08:28:44;;;;;;;33.55;18.13;;;3.30;99.90;;;;;;4931411;29;20071;-57
2023/03/02 08:31:11;;;;;;;31.20;16.10;;;3.30;99.90;;;;;;4948265;29;20142;-58
2023/03/02 08:33:37;;;;;;;29.90;15.75;;;3.40;99.90;;;;;;4937457;29;20051;-59
2023/03/02 08:36:07;;;;;;;29.02;15.25;;;3.40;99.90;;;;;;4947219;29;20075;-60
2023/03/02 08:38:34;;;;;;;29.90;16.00;;;3.50;99.90;;;;;;4947917;29;20688;-60
2023/03/02 08:41:08;;;;;;;31.00;16.88;;;3.50;99.90;;;;;;4947991;29;20105;-59
2023/03/02 08:43:35;;;;;;;30.40;15.60;;;3.60;99.90;;;;;;4944286;28;20541;-59
2023/03/02 08:46:02;;;;;;;33.80;17.17;;;3.60;99.90;;;;;;4947684;29;20055;-58
2023/03/02 08:48:29;;;;;;;30.38;16.02;;;3.70;99.90;;;;;;4947687;29;20074;-57
2023/03/02 08:51:07;;;;;;;33.75;16.98;;;3.70;99.90;;;;;;4931159;29;20134;-58
2023/03/02 08:53:37;;;;;;;28.60;16.73;;;3.80;99.90;;;;;;4959972;28;20090;-59
2023/03/02 08:56:06;;;;;;;31.88;16.02;;;3.80;99.90;;;;;;4947048;29;20142;-60
2023/03/02 08:58:33;;;;;;;29.92;16.60;;;3.90;99.90;;;;;;4946593;29;20063;-59
2023/03/02 09:00:59;;;;;;;33.50;17.33;;;4.00;99.90;;;;;;4929653;29;20752;-57
2023/03/02 09:03:26;;;;;;;37.42;18.13;;;4.00;99.90;;;;;;4946995;29;20051;-58
2023/03/02 09:05:53;;;;;;;37.17;18.48;;;4.10;99.90;;;;;;4949736;29;20510;-55
2023/03/02 09:08:20;;;;;;;30.15;17.50;;;4.20;99.90;;;;;;4947927;29;20079;-57
2023/03/02 09:10:46;;;;;;;34.67;17.08;;;4.30;99.90;;;;;;4950980;29;20059;-59
2023/03/02 09:13:13;;;;;;;32.47;17.80;;;4.40;99.90;;;;;;4933141;29;20106;-57
2023/03/02 09:15:40;;;;;;;35.03;19.52;;;4.50;99.90;;;;;;4950614;29;20047;-58
2023/03/02 09:18:07;;;;;;;31.77;16.98;;;4.60;99.90;;;;;;4950430;29;20055;-58
2023/03/02 09:20:33;;;;;;;35.00;17.88;;;4.60;99.90;;;;;;4950632;29;20621;-59
2023/03/02 09:23:00;;;;;;;34.78;19.70;;;4.80;99.90;;;;;;4950268;29;20062;-59
2023/03/02 09:25:27;;;;;;;33.50;18.67;;;4.90;99.90;;;;;;4950382;29;20509;-57
2023/03/02 09:27:54;;;;;;;40.85;19.13;;;5.00;99.90;;;;;;4950116;29;20490;-60
2023/03/02 09:30:21;;;;;;;40.80;19.65;;;5.10;99.90;;;;;;4950465;29;20692;-58
2023/03/02 09:32:48;;;;;;;32.70;18.48;;;5.20;99.90;;;;;;4933573;29;20050;-60
2023/03/02 09:35:15;;;;;;;38.50;18.77;;;5.20;99.90;;;;;;4933770;29;20047;-59
2023/03/02 09:37:41;;;;;;;33.28;18.75;;;5.30;99.90;;;;;;4950684;29;20400;-57
2023/03/02 09:40:30;;;;;;;32.33;18.75;;;5.30;99.90;;;;;;4950341;29;20053;-59
2023/03/02 09:43:33;;;;;;;33.45;19.83;;;5.30;99.90;;;;;;4933657;29;20059;-59
2023/03/02 09:46:20;;;;;;;38.90;21.00;;;5.20;99.90;;;;;;4872308;29;20093;-56
2023/03/02 09:49:10;;;;;;;32.67;18.58;;;5.20;99.90;;;;;;4945623;29;20055;-57
2023/03/02 09:52:11;;;;;;;30.08;17.02;;;5.30;99.90;;;;;;4950768;29;20051;-53
2023/03/02 09:54:38;;;;;;;38.00;19.65;;;5.50;99.90;;;;;;4934921;29;20050;-58
2023/03/02 09:57:47;;;;;;;39.78;17.50;;;5.60;99.90;;;;;;4933599;29;20064;-58
2023/03/02 10:00:22;;;;;;;31.52;18.20;;;5.60;99.90;;;;;;4933478;29;20376;-58
2023/03/02 10:03:10;;;;;;;30.02;17.10;;;5.80;99.90;;;;;;4934381;29;20047;-60
2023/03/02 10:05:47;;;;;;;52.50;24.52;;;5.90;99.90;;;;;;4926960;29;20055;-59
2023/03/02 10:08:22;;;;;;;32.40;18.33;;;5.90;99.90;;;;;;4932864;29;20562;-59
2023/03/02 10:11:04;;;;;;;37.05;18.35;;;5.90;99.90;;;;;;4933233;29;20395;-58
2023/03/02 10:13:39;;;;;;;32.42;17.80;;;5.90;99.90;;;;;;4949806;29;20054;-58
2023/03/02 10:16:12;;;;;;;32.17;18.30;;;5.80;99.90;;;;;;4932822;29;20127;-58
2023/03/02 10:19:05;;;;;;;35.80;17.90;;;5.90;99.90;;;;;;4933505;29;20063;-58
2023/03/02 10:21:46;;;;;;;29.15;16.02;;;5.90;99.90;;;;;;4935350;29;20054;-58
2023/03/02 10:24:20;;;;;;;30.67;17.58;;;6.00;99.90;;;;;;4933048;29;20094;-58
2023/03/02 10:26:52;;;;;;;32.33;15.60;;;6.20;99.90;;;;;;4932949;29;20410;-59
2023/03/02 10:29:43;;;;;;;31.50;17.63;;;6.20;99.90;;;;;;4933031;29;20186;-59
2023/03/02 10:32:47;;;;;;;27.33;17.48;;;6.20;99.90;;;;;;4946441;29;20141;-59
2023/03/02 10:35:24;;;;;;;36.05;16.92;;;6.30;99.90;;;;;;4871266;29;20136;-58
2023/03/02 10:37:54;;;;;;;41.15;17.77;;;6.30;99.90;;;;;;4933213;29;20054;-59
2023/03/02 10:40:39;;;;;;;38.47;16.70;;;6.30;99.90;;;;;;4932879;29;20043;-57
2023/03/02 10:43:10;;;;;;;35.67;16.85;;;6.30;99.90;;;;;;4924931;29;20057;-56
2023/03/02 10:45:37;;;;;;;30.77;16.20;;;6.30;99.90;;;;;;4917515;29;20051;-59
2023/03/02 10:48:06;;;;;;;36.05;18.33;;;6.30;99.90;;;;;;4949941;29;20043;-58
2023/03/02 10:50:33;;;;;;;27.88;16.90;;;6.40;99.90;;;;;;4933012;29;20043;-57
2023/03/02 10:53:00;;;;;;;28.00;15.95;;;6.50;99.90;;;;;;4950023;29;20067;-58
2023/03/02 10:55:31;;;;;;;36.30;17.90;;;6.60;99.90;;;;;;4933488;29;20058;-58
2023/03/02 10:58:06;;;;;;;26.20;15.93;;;6.60;99.90;;;;;;4917264;29;20048;-58
2023/03/02 11:00:33;;;;;;;28.42;16.05;;;6.60;99.90;;;;;;4949755;29;20475;-58
2023/03/02 11:03:03;;;;;;;28.90;17.00;;;6.60;99.90;;;;;;4571317;29;10000422;-59
2023/03/02 11:05:37;;;;;;;34.28;14.02;;;6.70;99.90;;;;;;4911999;29;20147;-57
2023/03/02 11:08:08;;;;;;;28.25;15.35;;;6.70;99.90;;;;;;4953209;29;20063;-63
2023/03/02 11:10:36;;;;;;;23.98;14.85;;;6.70;99.90;;;;;;4936964;29;20138;-58
2023/03/02 11:13:25;;;;;;;21.88;14.85;;;6.60;99.90;;;;;;4953370;29;20057;-57
2023/03/02 11:15:58;;;;;;;26.58;15.68;;;6.60;99.90;;;;;;4941409;29;20054;-57
2023/03/02 11:18:32;;;;;;;29.52;15.82;;;6.70;99.90;;;;;;4953790;29;20055;-61
2023/03/02 11:21:29;;;;;;;25.10;15.20;;;6.80;99.90;;;;;;4936957;29;20050;-58
2023/03/02 11:23:56;;;;;;;22.02;13.93;;;6.70;99.90;;;;;;4933293;29;20055;-59
2023/03/02 11:26:29;;;;;;;23.77;14.00;;;6.70;99.90;;;;;;4953498;29;20078;-58
2023/03/02 11:29:11;;;;;;;24.33;14.43;;;6.70;99.90;;;;;;4904964;29;20141;-58
2023/03/02 11:31:44;;;;;;;25.23;14.27;;;6.70;99.90;;;;;;4936319;29;20047;-60
2023/03/02 11:34:27;;;;;;;24.77;14.18;;;6.80;99.90;;;;;;4953479;29;20047;-59
2023/03/02 11:37:01;;;;;;;32.83;15.65;;;6.90;99.90;;;;;;4938053;29;20059;-58
2023/03/02 11:39:35;;;;;;;24.38;13.63;;;7.00;99.90;;;;;;4921950;29;20047;-58
2023/03/02 11:42:18;;;;;;;26.80;13.68;;;7.00;99.90;;;;;;4937752;29;20057;-58
2023/03/02 11:44:48;;;;;;;28.65;13.43;;;7.10;99.90;;;;;;4954399;29;20051;-58
2023/03/02 11:47:15;;;;;;;26.42;14.73;;;7.20;99.90;;;;;;4954123;29;20138;-58
2023/03/02 11:49:56;;;;;;;26.40;14.05;;;7.30;99.90;;;;;;4917765;29;20538;-58
2023/03/02 11:52:25;;;;;;;21.85;13.55;;;7.30;99.90;;;;;;4920023;29;20083;-56
2023/03/02 11:55:13;;;;;;;21.52;13.52;;;7.30;99.90;;;;;;4935708;29;20521;-58
2023/03/02 11:57:47;;;;;;;23.77;13.00;;;7.40;99.90;;;;;;4925923;29;20126;-57
2023/03/02 12:00:24;;;;;;;28.65;14.18;;;7.40;99.90;;;;;;4936579;29;20055;-59
2023/03/02 12:02:58;;;;;;;24.20;13.55;;;7.30;99.90;;;;;;4952926;29;20071;-59
2023/03/02 12:05:27;;;;;;;23.45;13.95;;;7.20;99.90;;;;;;4952928;29;20422;-59
2023/03/02 12:08:20;;;;;;;26.98;13.93;;;7.10;99.90;;;;;;4952630;29;20129;-59
2023/03/02 12:10:58;;;;;;;23.80;12.95;;;7.00;99.90;;;;;;4929976;29;20399;-59
2023/03/02 12:13:27;;;;;;;32.38;14.00;;;7.00;99.90;;;;;;4952418;29;20137;-61
2023/03/02 12:15:57;;;;;;;26.80;14.45;;;7.00;99.90;;;;;;4952683;29;20043;-59
2023/03/02 12:18:27;;;;;;;25.92;13.77;;;7.00;99.90;;;;;;4934949;29;20134;-57
2023/03/02 12:21:22;;;;;;;25.48;13.68;;;7.10;99.90;;;;;;4952623;29;20141;-58
2023/03/02 12:23:49;;;;;;;27.65;13.10;;;7.20;99.90;;;;;;4945594;29;20083;-58
2023/03/02 12:26:19;;;;;;;22.65;12.73;;;7.30;99.90;;;;;;4952532;29;20055;-59
2023/03/02 12:29:02;;;;;;;22.92;14.40;;;7.30;99.90;;;;;;4952248;29;20134;-60
2023/03/02 12:31:46;;;;;;;23.02;13.65;;;7.30;99.90;;;;;;4951847;29;20043;-58
2023/03/02 12:34:36;;;;;;;30.55;14.70;;;7.30;99.90;;;;;;4952002;29;20054;-59
2023/03/02 12:37:15;;;;;;;30.30;12.70;;;7.40;99.90;;;;;;4944458;29;20055;-58
2023/03/02 12:39:44;;;;;;;23.27;12.45;;;7.30;99.90;;;;;;4935083;29;20104;-58
2023/03/02 12:42:35;;;;;;;24.08;13.20;;;7.30;99.90;;;;;;4952099;29;20152;-59
2023/03/02 12:45:26;;;;;;;21.92;11.55;;;7.40;99.90;;;;;;4951885;29;20061;-55
2023/03/02 12:48:06;;;;;;;25.48;11.52;;;7.40;99.90;;;;;;4921014;29;20054;-57
2023/03/02 12:50:35;;;;;;;28.52;14.82;;;7.40;99.90;;;;;;4919338;29;20078;-58
2023/03/02 12:53:03;;;;;;;21.05;11.13;;;7.50;99.90;;;;;;4919303;29;20051;-58
2023/03/02 12:55:31;;;;;;;23.25;12.20;;;7.50;99.90;;;;;;4951676;29;20079;-57
2023/03/02 12:58:00;;;;;;;16.92;10.45;;;7.50;99.90;;;;;;4951903;29;20383;-57